sensor_id;sensor_type;location;lat;lon;timestamp;pressure;altitude;pressure_sealevel;temperature;humidity
25420;BME280;13354;48.174;11.566;2022-09-27T00:01:23;94213.38;;;12.48;66.39
25420;BME280;13354;48.174;11.566;2022-09-27T00:03:51;94208.50;;;12.56;66.33
25420;BME280;13354;48.174;11.566;2022-09-27T00:06:23;94204.25;;;12.89;64.92
25420;BME280;13354;48.174;11.566;2022-09-27T00:08:48;94206.59;;;12.69;66.52
25420;BME280;13354;48.174;11.566;2022-09-27T00:11:16;94203.72;;;12.70;66.23
25420;BME280;13354;48.174;11.566;2022-09-27T00:13:44;94202.97;;;12.75;65.70
25420;BME280;13354;48.174;11.566;2022-09-27T00:16:09;94199.97;;;12.54;67.79
25420;BME280;13354;48.174;11.566;2022-09-27T00:18:34;94192.88;;;12.43;69.16
25420;BME280;13354;48.174;11.566;2022-09-27T00:21:06;94179.53;;;12.55;68.34
25420;BME280;13354;48.174;11.566;2022-09-27T00:23:32;94184.84;;;12.55;69.57
25420;BME280;13354;48.174;11.566;2022-09-27T00:25:58;94195.25;;;12.56;69.64
25420;BME280;13354;48.174;11.566;2022-09-27T00:28:24;94193.63;;;12.72;68.04
25420;BME280;13354;48.174;11.566;2022-09-27T00:30:49;94200.41;;;12.63;69.29
25420;BME280;13354;48.174;11.566;2022-09-27T00:33:15;94195.56;;;12.60;68.67
25420;BME280;13354;48.174;11.566;2022-09-27T00:35:40;94193.72;;;12.61;69.20
25420;BME280;13354;48.174;11.566;2022-09-27T00:38:05;94198.19;;;12.43;70.18
25420;BME280;13354;48.174;11.566;2022-09-27T00:40:31;94191.22;;;12.37;71.38
25420;BME280;13354;48.174;11.566;2022-09-27T00:42:56;94183.75;;;12.22;73.19
25420;BME280;13354;48.174;11.566;2022-09-27T00:45:21;94176.84;;;12.21;74.18
25420;BME280;13354;48.174;11.566;2022-09-27T00:47:50;94181.41;;;12.38;72.59
25420;BME280;13354;48.174;11.566;2022-09-27T00:52:48;94171.81;;;12.37;72.43
25420;BME280;13354;48.174;11.566;2022-09-27T00:55:18;94172.53;;;12.32;74.72
25420;BME280;13354;48.174;11.566;2022-09-27T00:57:44;94167.69;;;12.12;75.69
25420;BME280;13354;48.174;11.566;2022-09-27T01:00:11;94165.31;;;11.99;76.43
25420;BME280;13354;48.174;11.566;2022-09-27T01:02:37;94164.19;;;11.95;77.27
25420;BME280;13354;48.174;11.566;2022-09-27T01:05:04;94174.66;;;12.01;76.74
25420;BME280;13354;48.174;11.566;2022-09-27T01:07:30;94170.00;;;12.08;76.74
25420;BME280;13354;48.174;11.566;2022-09-27T01:09:57;94172.25;;;12.17;76.16
25420;BME280;13354;48.174;11.566;2022-09-27T01:12:27;94168.63;;;12.06;78.05
25420;BME280;13354;48.174;11.566;2022-09-27T01:14:59;94164.44;;;11.93;79.14
25420;BME280;13354;48.174;11.566;2022-09-27T01:20:27;94155.97;;;11.96;76.60
25420;BME280;13354;48.174;11.566;2022-09-27T01:39:28;94137.28;;;11.63;78.77
25420;BME280;13354;48.174;11.566;2022-09-27T01:41:31;94132.28;;;11.49;79.16
25420;BME280;13354;48.174;11.566;2022-09-27T01:44:03;94134.47;;;11.41;81.00
25420;BME280;13354;48.174;11.566;2022-09-27T01:46:35;94136.56;;;11.39;82.24
25420;BME280;13354;48.174;11.566;2022-09-27T01:49:04;94136.22;;;11.35;82.31
25420;BME280;13354;48.174;11.566;2022-09-27T01:51:35;94137.50;;;11.32;82.75
25420;BME280;13354;48.174;11.566;2022-09-27T01:54:02;94131.72;;;11.35;83.02
25420;BME280;13354;48.174;11.566;2022-09-27T01:56:33;94132.31;;;11.26;84.14
25420;BME280;13354;48.174;11.566;2022-09-27T02:01:25;94124.16;;;11.27;84.89
25420;BME280;13354;48.174;11.566;2022-09-27T02:03:52;94118.84;;;11.16;85.81
25420;BME280;13354;48.174;11.566;2022-09-27T02:06:23;94119.22;;;11.07;85.97
25420;BME280;13354;48.174;11.566;2022-09-27T02:08:54;94119.13;;;11.02;86.51
25420;BME280;13354;48.174;11.566;2022-09-27T02:11:20;94109.22;;;11.09;86.52
25420;BME280;13354;48.174;11.566;2022-09-27T02:13:49;94108.25;;;11.16;85.82
25420;BME280;13354;48.174;11.566;2022-09-27T02:16:21;94114.38;;;11.04;86.27
25420;BME280;13354;48.174;11.566;2022-09-27T02:21:24;94122.59;;;10.91;88.58
25420;BME280;13354;48.174;11.566;2022-09-27T02:23:53;94119.34;;;11.01;87.96
25420;BME280;13354;48.174;11.566;2022-09-27T02:26:23;94121.19;;;11.00;88.02
25420;BME280;13354;48.174;11.566;2022-09-27T02:28:54;94123.06;;;10.88;89.67
25420;BME280;13354;48.174;11.566;2022-09-27T02:31:21;94119.94;;;11.03;88.88
25420;BME280;13354;48.174;11.566;2022-09-27T02:33:48;94116.03;;;11.05;88.83
25420;BME280;13354;48.174;11.566;2022-09-27T02:36:15;94105.78;;;10.97;88.86
25420;BME280;13354;48.174;11.566;2022-09-27T02:38:41;94116.81;;;11.06;90.07
25420;BME280;13354;48.174;11.566;2022-09-27T02:41:14;94113.94;;;11.07;90.46
25420;BME280;13354;48.174;11.566;2022-09-27T02:43:39;94091.47;;;11.10;90.58
25420;BME280;13354;48.174;11.566;2022-09-27T02:48:31;94092.97;;;11.06;89.51
25420;BME280;13354;48.174;11.566;2022-09-27T02:53:58;94104.13;;;11.08;90.15
25420;BME280;13354;48.174;11.566;2022-09-27T02:56:28;94079.41;;;11.02;89.05
25420;BME280;13354;48.174;11.566;2022-09-27T02:59:00;94077.53;;;11.15;89.82
25420;BME280;13354;48.174;11.566;2022-09-27T03:01:41;94085.41;;;10.98;89.81
25420;BME280;13354;48.174;11.566;2022-09-27T03:04:14;94084.94;;;10.89;89.66
25420;BME280;13354;48.174;11.566;2022-09-27T03:06:41;94076.91;;;10.84;90.95
25420;BME280;13354;48.174;11.566;2022-09-27T03:09:13;94079.91;;;10.76;90.26
25420;BME280;13354;48.174;11.566;2022-09-27T03:11:38;94075.53;;;10.70;91.12
25420;BME280;13354;48.174;11.566;2022-09-27T03:14:03;94067.00;;;10.68;91.91
25420;BME280;13354;48.174;11.566;2022-09-27T03:16:28;94062.22;;;10.64;91.79
25420;BME280;13354;48.174;11.566;2022-09-27T03:18:53;94064.84;;;10.64;92.70
25420;BME280;13354;48.174;11.566;2022-09-27T03:21:19;94063.91;;;10.59;92.32
25420;BME280;13354;48.174;11.566;2022-09-27T03:23:44;94064.84;;;10.64;91.85
25420;BME280;13354;48.174;11.566;2022-09-27T03:26:09;94056.66;;;10.66;92.24
25420;BME280;13354;48.174;11.566;2022-09-27T03:28:34;94055.06;;;10.65;93.21
25420;BME280;13354;48.174;11.566;2022-09-27T03:31:00;94060.03;;;10.61;92.23
25420;BME280;13354;48.174;11.566;2022-09-27T03:33:26;94051.28;;;10.61;91.79
25420;BME280;13354;48.174;11.566;2022-09-27T03:35:51;94046.78;;;10.61;92.39
25420;BME280;13354;48.174;11.566;2022-09-27T03:38:16;94050.13;;;10.57;92.09
25420;BME280;13354;48.174;11.566;2022-09-27T03:40:41;94045.19;;;10.60;92.12
25420;BME280;13354;48.174;11.566;2022-09-27T03:43:06;94043.78;;;10.70;92.12
25420;BME280;13354;48.174;11.566;2022-09-27T03:45:32;94041.59;;;10.67;92.79
25420;BME280;13354;48.174;11.566;2022-09-27T03:47:57;94042.63;;;10.77;91.56
25420;BME280;13354;48.174;11.566;2022-09-27T03:50:22;94044.81;;;10.69;92.09
25420;BME280;13354;48.174;11.566;2022-09-27T03:52:48;94037.81;;;10.62;93.30
25420;BME280;13354;48.174;11.566;2022-09-27T03:55:13;94022.50;;;10.64;92.02
25420;BME280;13354;48.174;11.566;2022-09-27T03:57:38;94024.22;;;10.71;92.73
25420;BME280;13354;48.174;11.566;2022-09-27T04:00:07;94024.22;;;10.71;92.67
25420;BME280;13354;48.174;11.566;2022-09-27T04:02:33;94026.63;;;10.72;92.09
25420;BME280;13354;48.174;11.566;2022-09-27T04:04:58;94030.88;;;10.73;93.45
25420;BME280;13354;48.174;11.566;2022-09-27T04:07:23;94028.81;;;10.75;92.64
25420;BME280;13354;48.174;11.566;2022-09-27T04:09:48;94032.59;;;10.79;90.71
25420;BME280;13354;48.174;11.566;2022-09-27T04:12:14;94024.75;;;10.84;90.32
25420;BME280;13354;48.174;11.566;2022-09-27T04:14:39;94018.09;;;10.82;91.94
25420;BME280;13354;48.174;11.566;2022-09-27T04:17:04;94019.69;;;10.95;89.94
25420;BME280;13354;48.174;11.566;2022-09-27T04:19:29;94023.88;;;10.79;90.81
25420;BME280;13354;48.174;11.566;2022-09-27T04:21:55;94019.09;;;10.93;91.01
25420;BME280;13354;48.174;11.566;2022-09-27T04:24:20;94029.00;;;10.97;91.27
25420;BME280;13354;48.174;11.566;2022-09-27T04:26:45;94028.19;;;10.97;90.58
25420;BME280;13354;48.174;11.566;2022-09-27T04:29:13;94031.66;;;10.85;91.16
25420;BME280;13354;48.174;11.566;2022-09-27T04:31:39;94031.78;;;10.91;90.92
25420;BME280;13354;48.174;11.566;2022-09-27T04:34:05;94032.47;;;10.86;91.05
25420;BME280;13354;48.174;11.566;2022-09-27T04:36:31;94033.28;;;10.86;90.71
25420;BME280;13354;48.174;11.566;2022-09-27T04:38:57;94035.13;;;10.74;91.03
25420;BME280;13354;48.174;11.566;2022-09-27T04:41:24;94028.13;;;10.80;90.26
25420;BME280;13354;48.174;11.566;2022-09-27T04:43:50;94036.16;;;10.85;90.26
25420;BME280;13354;48.174;11.566;2022-09-27T04:46:16;94024.09;;;10.77;90.26
25420;BME280;13354;48.174;11.566;2022-09-27T04:48:42;94030.88;;;10.73;90.13
25420;BME280;13354;48.174;11.566;2022-09-27T04:51:08;94037.09;;;10.79;89.38
25420;BME280;13354;48.174;11.566;2022-09-27T04:53:33;94033.06;;;10.76;89.97
25420;BME280;13354;48.174;11.566;2022-09-27T04:55:58;94036.41;;;10.83;89.38
25420;BME280;13354;48.174;11.566;2022-09-27T04:58:26;94042.03;;;10.87;88.77
25420;BME280;13354;48.174;11.566;2022-09-27T05:00:51;94057.56;;;10.83;88.63
25420;BME280;13354;48.174;11.566;2022-09-27T05:03:18;94055.03;;;10.77;88.36
25420;BME280;13354;48.174;11.566;2022-09-27T05:05:43;94056.19;;;10.81;89.16
25420;BME280;13354;48.174;11.566;2022-09-27T05:08:09;94061.59;;;10.74;88.34
25420;BME280;13354;48.174;11.566;2022-09-27T05:10:34;94058.50;;;10.77;89.18
25420;BME280;13354;48.174;11.566;2022-09-27T05:13:00;94052.75;;;10.80;89.19
25420;BME280;13354;48.174;11.566;2022-09-27T05:15:25;94059.53;;;10.76;89.80
25420;BME280;13354;48.174;11.566;2022-09-27T05:17:50;94053.63;;;10.86;89.00
25420;BME280;13354;48.174;11.566;2022-09-27T05:20:16;94060.44;;;10.82;89.84
25420;BME280;13354;48.174;11.566;2022-09-27T05:22:41;94061.00;;;10.96;88.05
25420;BME280;13354;48.174;11.566;2022-09-27T05:25:07;94069.66;;;10.91;88.10
25420;BME280;13354;48.174;11.566;2022-09-27T05:27:32;94082.63;;;10.93;87.28
25420;BME280;13354;48.174;11.566;2022-09-27T05:29:57;94075.75;;;10.80;88.18
25420;BME280;13354;48.174;11.566;2022-09-27T05:32:25;94075.66;;;10.86;87.83
25420;BME280;13354;48.174;11.566;2022-09-27T05:34:51;94073.91;;;10.80;87.40
25420;BME280;13354;48.174;11.566;2022-09-27T05:37:17;94070.59;;;10.73;86.91
25420;BME280;13354;48.174;11.566;2022-09-27T05:39:43;94068.03;;;10.78;87.20
25420;BME280;13354;48.174;11.566;2022-09-27T05:42:08;94080.59;;;10.83;86.07
25420;BME280;13354;48.174;11.566;2022-09-27T05:44:34;94070.91;;;10.88;86.16
25420;BME280;13354;48.174;11.566;2022-09-27T05:47:00;94085.66;;;10.84;85.76
25420;BME280;13354;48.174;11.566;2022-09-27T05:49:28;94087.41;;;10.79;85.72
25420;BME280;13354;48.174;11.566;2022-09-27T05:51:53;94096.00;;;10.74;86.63
25420;BME280;13354;48.174;11.566;2022-09-27T05:54:18;94100.28;;;10.75;85.37
25420;BME280;13354;48.174;11.566;2022-09-27T05:56:43;94096.81;;;10.75;85.49
25420;BME280;13354;48.174;11.566;2022-09-27T05:59:09;94094.84;;;10.82;85.88
25420;BME280;13354;48.174;11.566;2022-09-27T06:01:34;94089.09;;;10.85;84.82
25420;BME280;13354;48.174;11.566;2022-09-27T06:03:59;94093.16;;;10.76;85.72
25420;BME280;13354;48.174;11.566;2022-09-27T06:06:25;94109.13;;;10.93;83.82
25420;BME280;13354;48.174;11.566;2022-09-27T06:08:50;94105.66;;;10.92;82.97
25420;BME280;13354;48.174;11.566;2022-09-27T06:11:15;94110.50;;;10.95;83.26
25420;BME280;13354;48.174;11.566;2022-09-27T06:13:41;94115.56;;;10.85;83.71
25420;BME280;13354;48.174;11.566;2022-09-27T06:16:07;94112.03;;;10.79;83.35
25420;BME280;13354;48.174;11.566;2022-09-27T06:18:33;94115.69;;;10.78;82.50
25420;BME280;13354;48.174;11.566;2022-09-27T06:20:59;94117.19;;;10.74;83.63
25420;BME280;13354;48.174;11.566;2022-09-27T06:23:24;94124.91;;;10.87;82.55
25420;BME280;13354;48.174;11.566;2022-09-27T06:25:50;94126.16;;;10.73;83.35
25420;BME280;13354;48.174;11.566;2022-09-27T06:28:16;94139.75;;;10.65;83.87
25420;BME280;13354;48.174;11.566;2022-09-27T06:30:42;94145.25;;;10.63;83.07
25420;BME280;13354;48.174;11.566;2022-09-27T06:33:09;94144.34;;;10.58;83.52
25420;BME280;13354;48.174;11.566;2022-09-27T06:35:35;94147.78;;;10.70;83.50
25420;BME280;13354;48.174;11.566;2022-09-27T06:38:04;94147.91;;;10.52;84.18
25420;BME280;13354;48.174;11.566;2022-09-27T06:40:31;94144.94;;;10.72;82.85
25420;BME280;13354;48.174;11.566;2022-09-27T06:43:08;94147.94;;;10.75;82.36
25420;BME280;13354;48.174;11.566;2022-09-27T06:45:34;94149.53;;;10.76;82.02
25420;BME280;13354;48.174;11.566;2022-09-27T06:48:00;94160.81;;;10.72;82.58
25420;BME280;13354;48.174;11.566;2022-09-27T06:50:26;94165.06;;;10.84;82.21
25420;BME280;13354;48.174;11.566;2022-09-27T06:52:52;94157.78;;;11.03;80.78
25420;BME280;13354;48.174;11.566;2022-09-27T06:55:17;94158.84;;;10.91;80.95
25420;BME280;13354;48.174;11.566;2022-09-27T06:57:42;94159.41;;;10.81;80.00
25420;BME280;13354;48.174;11.566;2022-09-27T07:00:26;94162.31;;;10.79;79.23
25420;BME280;13354;48.174;11.566;2022-09-27T07:02:52;94166.56;;;10.92;78.10
25420;BME280;13354;48.174;11.566;2022-09-27T07:05:18;94166.00;;;11.02;77.81
25420;BME280;13354;48.174;11.566;2022-09-27T07:07:44;94185.09;;;11.04;77.46
25420;BME280;13354;48.174;11.566;2022-09-27T07:10:10;94189.81;;;11.13;76.86
25420;BME280;13354;48.174;11.566;2022-09-27T07:12:36;94196.28;;;10.94;77.31
25420;BME280;13354;48.174;11.566;2022-09-27T07:15:02;94195.00;;;11.08;76.98
25420;BME280;13354;48.174;11.566;2022-09-27T07:17:27;94184.53;;;11.02;76.04
25420;BME280;13354;48.174;11.566;2022-09-27T07:19:52;94186.13;;;11.15;76.29
25420;BME280;13354;48.174;11.566;2022-09-27T07:22:18;94192.56;;;11.30;75.58
25420;BME280;13354;48.174;11.566;2022-09-27T07:24:43;94187.81;;;11.32;73.97
25420;BME280;13354;48.174;11.566;2022-09-27T07:27:08;94186.06;;;11.50;74.01
25420;BME280;13354;48.174;11.566;2022-09-27T07:29:34;94189.91;;;11.42;72.98
25420;BME280;13354;48.174;11.566;2022-09-27T07:31:59;94186.44;;;11.42;73.51
25420;BME280;13354;48.174;11.566;2022-09-27T07:34:24;94185.03;;;11.51;73.47
25420;BME280;13354;48.174;11.566;2022-09-27T07:36:49;94190.25;;;11.46;73.49
25420;BME280;13354;48.174;11.566;2022-09-27T07:39:15;94187.59;;;11.46;73.93
25420;BME280;13354;48.174;11.566;2022-09-27T07:41:41;94179.72;;;11.51;73.60
25420;BME280;13354;48.174;11.566;2022-09-27T07:44:07;94180.66;;;11.56;74.02
25420;BME280;13354;48.174;11.566;2022-09-27T07:46:32;94194.69;;;11.57;74.36
25420;BME280;13354;48.174;11.566;2022-09-27T07:48:58;94187.22;;;11.54;74.12
25420;BME280;13354;48.174;11.566;2022-09-27T07:51:23;94193.91;;;11.56;73.78
25420;BME280;13354;48.174;11.566;2022-09-27T07:53:49;94201.03;;;11.56;73.27
25420;BME280;13354;48.174;11.566;2022-09-27T07:56:14;94207.50;;;11.48;73.66
25420;BME280;13354;48.174;11.566;2022-09-27T07:58:39;94195.41;;;11.41;73.66
25420;BME280;13354;48.174;11.566;2022-09-27T08:01:05;94198.16;;;11.57;72.70
25420;BME280;13354;48.174;11.566;2022-09-27T08:03:31;94212.34;;;11.51;73.46
25420;BME280;13354;48.174;11.566;2022-09-27T08:05:56;94207.84;;;11.64;72.53
25420;BME280;13354;48.174;11.566;2022-09-27T08:08:21;94223.03;;;11.68;74.77
25420;BME280;13354;48.174;11.566;2022-09-27T08:10:46;94259.69;;;11.36;76.70
25420;BME280;13354;48.174;11.566;2022-09-27T08:13:12;94257.38;;;11.04;76.74
25420;BME280;13354;48.174;11.566;2022-09-27T08:15:38;94269.22;;;10.78;76.73
25420;BME280;13354;48.174;11.566;2022-09-27T08:18:04;94269.44;;;10.65;77.36
25420;BME280;13354;48.174;11.566;2022-09-27T08:20:30;94272.34;;;10.45;77.71
25420;BME280;13354;48.174;11.566;2022-09-27T08:22:55;94269.00;;;10.20;79.34
25420;BME280;13354;48.174;11.566;2022-09-27T08:25:20;94270.34;;;10.10;80.80
25420;BME280;13354;48.174;11.566;2022-09-27T08:27:58;94277.31;;;10.05;81.95
25420;BME280;13354;48.174;11.566;2022-09-27T08:30:23;94280.63;;;10.19;82.10
25420;BME280;13354;48.174;11.566;2022-09-27T08:32:53;94271.06;;;10.18;82.32
25420;BME280;13354;48.174;11.566;2022-09-27T08:35:18;94275.03;;;10.08;81.85
25420;BME280;13354;48.174;11.566;2022-09-27T08:37:51;94292.75;;;10.08;82.68
25420;BME280;13354;48.174;11.566;2022-09-27T08:40:16;94291.22;;;10.00;82.61
25420;BME280;13354;48.174;11.566;2022-09-27T08:42:50;94294.03;;;10.05;81.69
25420;BME280;13354;48.174;11.566;2022-09-27T08:45:26;94287.16;;;9.98;83.07
25420;BME280;13354;48.174;11.566;2022-09-27T08:47:54;94284.66;;;10.21;82.62
25420;BME280;13354;48.174;11.566;2022-09-27T08:57:47;94278.22;;;10.89;80.89
25420;BME280;13354;48.174;11.566;2022-09-27T09:00:14;94282.63;;;11.19;79.58
25420;BME280;13354;48.174;11.566;2022-09-27T09:02:40;94284.22;;;11.55;76.25
25420;BME280;13354;48.174;11.566;2022-09-27T09:05:06;94287.34;;;11.40;75.98
25420;BME280;13354;48.174;11.566;2022-09-27T09:13:02;94293.34;;;11.35;75.82
25420;BME280;13354;48.174;11.566;2022-09-27T09:15:36;94294.28;;;11.53;73.99
25420;BME280;13354;48.174;11.566;2022-09-27T09:23:22;94292.94;;;12.02;74.61
25420;BME280;13354;48.174;11.566;2022-09-27T09:33:57;94286.25;;;12.69;67.24
25420;BME280;13354;48.174;11.566;2022-09-27T09:36:27;94282.09;;;13.06;67.50
25420;BME280;13354;48.174;11.566;2022-09-27T09:38:54;94283.22;;;12.94;66.42
25420;BME280;13354;48.174;11.566;2022-09-27T09:41:38;94292.38;;;12.86;67.36
25420;BME280;13354;48.174;11.566;2022-09-27T09:44:19;94284.38;;;12.69;65.52
25420;BME280;13354;48.174;11.566;2022-09-27T09:46:47;94292.84;;;12.38;65.47
25420;BME280;13354;48.174;11.566;2022-09-27T09:49:23;94298.56;;;12.18;67.82
25420;BME280;13354;48.174;11.566;2022-09-27T09:51:52;94311.31;;;12.32;66.85
25420;BME280;13354;48.174;11.566;2022-09-27T09:54:25;94296.75;;;12.06;67.75
25420;BME280;13354;48.174;11.566;2022-09-27T09:57:05;94318.22;;;11.93;68.54
25420;BME280;13354;48.174;11.566;2022-09-27T09:59:37;94309.44;;;11.81;67.37
25420;BME280;13354;48.174;11.566;2022-09-27T10:02:24;94300.13;;;11.78;67.80
25420;BME280;13354;48.174;11.566;2022-09-27T10:04:54;94309.06;;;12.13;66.48
25420;BME280;13354;48.174;11.566;2022-09-27T10:07:20;94308.22;;;11.83;66.00
25420;BME280;13354;48.174;11.566;2022-09-27T10:09:47;94299.97;;;12.08;66.28
25420;BME280;13354;48.174;11.566;2022-09-27T10:12:13;94310.94;;;11.89;66.38
25420;BME280;13354;48.174;11.566;2022-09-27T10:14:38;94315.44;;;11.76;66.78
25420;BME280;13354;48.174;11.566;2022-09-27T10:17:05;94321.09;;;11.68;67.11
25420;BME280;13354;48.174;11.566;2022-09-27T10:19:34;94330.81;;;11.86;67.42
25420;BME280;13354;48.174;11.566;2022-09-27T10:25:01;94330.81;;;11.86;67.61
25420;BME280;13354;48.174;11.566;2022-09-27T10:27:28;94323.88;;;11.85;66.82
25420;BME280;13354;48.174;11.566;2022-09-27T10:30:02;94320.75;;;11.88;66.62
25420;BME280;13354;48.174;11.566;2022-09-27T10:32:30;94319.50;;;11.91;66.14
25420;BME280;13354;48.174;11.566;2022-09-27T10:37:41;94325.00;;;11.89;66.66
25420;BME280;13354;48.174;11.566;2022-09-27T10:40:27;94329.63;;;12.05;66.79
25420;BME280;13354;48.174;11.566;2022-09-27T10:42:52;94337.13;;;12.08;66.23
25420;BME280;13354;48.174;11.566;2022-09-27T10:47:46;94341.50;;;11.79;69.58
25420;BME280;13354;48.174;11.566;2022-09-27T10:50:20;94345.88;;;11.74;70.23
25420;BME280;13354;48.174;11.566;2022-09-27T10:52:47;94340.22;;;11.23;72.12
25420;BME280;13354;48.174;11.566;2022-09-27T10:55:23;94347.50;;;11.40;71.07
25420;BME280;13354;48.174;11.566;2022-09-27T10:57:49;94324.69;;;11.39;72.27
25420;BME280;13354;48.174;11.566;2022-09-27T11:02:44;94334.25;;;11.75;73.01
25420;BME280;13354;48.174;11.566;2022-09-27T11:08:00;94334.94;;;12.74;67.19
25420;BME280;13354;48.174;11.566;2022-09-27T11:10:31;94321.94;;;13.06;66.37
25420;BME280;13354;48.174;11.566;2022-09-27T11:15:31;94316.31;;;13.70;65.35
25420;BME280;13354;48.174;11.566;2022-09-27T11:18:04;94324.66;;;13.96;64.13
25420;BME280;13354;48.174;11.566;2022-09-27T11:20:38;94324.16;;;13.60;65.20
25420;BME280;13354;48.174;11.566;2022-09-27T11:25:38;94325.63;;;12.89;65.23
25420;BME280;13354;48.174;11.566;2022-09-27T11:33:44;94325.91;;;12.47;66.20
25420;BME280;13354;48.174;11.566;2022-09-27T11:36:17;94329.13;;;12.20;66.38
25420;BME280;13354;48.174;11.566;2022-09-27T11:46:41;94331.25;;;11.36;69.76
25420;BME280;13354;48.174;11.566;2022-09-27T11:51:52;94337.84;;;10.92;72.21
25420;BME280;13354;48.174;11.566;2022-09-27T12:01:52;94319.69;;;11.19;73.75
25420;BME280;13354;48.174;11.566;2022-09-27T12:04:28;94318.44;;;11.33;73.69
25420;BME280;13354;48.174;11.566;2022-09-27T12:07:01;94328.09;;;11.16;76.88
25420;BME280;13354;48.174;11.566;2022-09-27T12:09:31;94336.16;;;10.97;78.83
25420;BME280;13354;48.174;11.566;2022-09-27T12:12:08;94338.75;;;10.85;79.83
25420;BME280;13354;48.174;11.566;2022-09-27T12:14:55;94330.94;;;10.91;80.85
25420;BME280;13354;48.174;11.566;2022-09-27T12:17:20;94343.03;;;10.86;82.89
25420;BME280;13354;48.174;11.566;2022-09-27T12:19:48;94346.28;;;10.70;83.66
25420;BME280;13354;48.174;11.566;2022-09-27T12:22:17;94334.44;;;10.61;84.39
25420;BME280;13354;48.174;11.566;2022-09-27T12:24:45;94329.78;;;10.56;83.59
25420;BME280;13354;48.174;11.566;2022-09-27T12:27:15;94335.16;;;10.68;83.51
25420;BME280;13354;48.174;11.566;2022-09-27T12:29:41;94327.09;;;10.75;84.39
25420;BME280;13354;48.174;11.566;2022-09-27T12:32:25;94325.03;;;10.77;82.73
25420;BME280;13354;48.174;11.566;2022-09-27T12:37:23;94319.69;;;11.07;81.37
25420;BME280;13354;48.174;11.566;2022-09-27T12:39:53;94316.25;;;11.18;80.67
25420;BME280;13354;48.174;11.566;2022-09-27T12:42:25;94312.34;;;11.56;80.06
25420;BME280;13354;48.174;11.566;2022-09-27T12:44:54;94312.00;;;11.88;79.11
25420;BME280;13354;48.174;11.566;2022-09-27T12:47:23;94311.59;;;12.07;76.03
25420;BME280;13354;48.174;11.566;2022-09-27T12:52:23;94305.84;;;12.11;73.69
25420;BME280;13354;48.174;11.566;2022-09-27T12:55:11;94309.63;;;12.15;74.34
25420;BME280;13354;48.174;11.566;2022-09-27T13:00:09;94298.34;;;12.07;75.22
25420;BME280;13354;48.174;11.566;2022-09-27T13:12:57;94289.75;;;12.00;74.55
25420;BME280;13354;48.174;11.566;2022-09-27T13:15:25;94290.38;;;12.07;74.81
25420;BME280;13354;48.174;11.566;2022-09-27T13:17:53;94291.88;;;12.15;75.29
25420;BME280;13354;48.174;11.566;2022-09-27T13:20:31;94294.47;;;12.55;74.22
25420;BME280;13354;48.174;11.566;2022-09-27T13:22:57;94286.81;;;12.88;72.87
25420;BME280;13354;48.174;11.566;2022-09-27T13:28:29;94281.13;;;13.13;69.76
25420;BME280;13354;48.174;11.566;2022-09-27T13:30:52;94283.00;;;13.46;66.27
25420;BME280;13354;48.174;11.566;2022-09-27T13:36:04;94283.44;;;12.92;64.80
25420;BME280;13354;48.174;11.566;2022-09-27T13:38:28;94297.22;;;12.89;64.28
25420;BME280;13354;48.174;11.566;2022-09-27T13:40:53;94292.88;;;12.83;62.36
25420;BME280;13354;48.174;11.566;2022-09-27T13:46:06;94283.81;;;13.29;61.15
25420;BME280;13354;48.174;11.566;2022-09-27T13:53:55;94297.03;;;12.79;60.45
25420;BME280;13354;48.174;11.566;2022-09-27T13:59:05;94308.81;;;12.54;61.66
25420;BME280;13354;48.174;11.566;2022-09-27T14:01:32;94300.19;;;12.47;60.92
25420;BME280;13354;48.174;11.566;2022-09-27T14:04:01;94307.13;;;12.48;61.69
25420;BME280;13354;48.174;11.566;2022-09-27T14:06:30;94300.22;;;12.36;61.97
25420;BME280;13354;48.174;11.566;2022-09-27T14:09:06;94301.06;;;12.24;62.04
25420;BME280;13354;48.174;11.566;2022-09-27T14:11:39;94299.34;;;12.30;62.78
25420;BME280;13354;48.174;11.566;2022-09-27T14:14:06;94299.47;;;12.23;63.21
25420;BME280;13354;48.174;11.566;2022-09-27T14:16:39;94296.84;;;12.12;63.80
25420;BME280;13354;48.174;11.566;2022-09-27T14:19:05;94304.31;;;12.15;64.57
25420;BME280;13354;48.174;11.566;2022-09-27T14:21:38;94315.84;;;12.20;62.99
25420;BME280;13354;48.174;11.566;2022-09-27T14:26:44;94313.88;;;12.27;62.36
25420;BME280;13354;48.174;11.566;2022-09-27T14:29:16;94314.56;;;12.35;62.12
25420;BME280;13354;48.174;11.566;2022-09-27T14:31:41;94329.50;;;12.52;62.03
25420;BME280;13354;48.174;11.566;2022-09-27T14:34:07;94327.56;;;12.36;60.93
25420;BME280;13354;48.174;11.566;2022-09-27T14:36:35;94323.19;;;12.42;62.29
25420;BME280;13354;48.174;11.566;2022-09-27T14:39:21;94327.16;;;12.56;61.09
25420;BME280;13354;48.174;11.566;2022-09-27T14:41:46;94340.00;;;12.47;60.85
25420;BME280;13354;48.174;11.566;2022-09-27T14:44:15;94328.34;;;11.96;61.88
25420;BME280;13354;48.174;11.566;2022-09-27T14:46:41;94341.25;;;11.81;61.91
25420;BME280;13354;48.174;11.566;2022-09-27T14:49:10;94333.75;;;11.78;62.67
25420;BME280;13354;48.174;11.566;2022-09-27T14:51:37;94325.00;;;11.77;62.98
25420;BME280;13354;48.174;11.566;2022-09-27T14:54:03;94328.25;;;11.56;64.07
25420;BME280;13354;48.174;11.566;2022-09-27T14:56:31;94320.97;;;11.63;63.36
25420;BME280;13354;48.174;11.566;2022-09-27T14:59:00;94330.09;;;11.67;63.85
25420;BME280;13354;48.174;11.566;2022-09-27T15:01:26;94333.78;;;11.54;64.26
25420;BME280;13354;48.174;11.566;2022-09-27T15:03:53;94327.44;;;11.44;65.16
25420;BME280;13354;48.174;11.566;2022-09-27T15:06:18;94330.69;;;11.46;65.18
25420;BME280;13354;48.174;11.566;2022-09-27T15:08:44;94327.00;;;11.35;65.66
25420;BME280;13354;48.174;11.566;2022-09-27T15:11:13;94320.75;;;11.41;65.25